Terminal Aerodrome Forecast
Issued by NWS

Home | Current Version | Previous Version | Text Only | Print | Product List | Glossary On
Versions: 1 2 3 4 5 6 7 8 9 10 11 12 13 14 15 16
000
FTUS41 KPBZ 052339
TAFDUJ
TAF
KDUJ 052339Z 0600/0624 VRB03KT P6SM BKN050
     FM060600 VRB03KT 4SM BR BKN025
     FM060900 14005KT 3SM BR BKN010
     FM061500 04005KT P6SM BKN100=

USA.gov is the U.S. government's official web portal to all federal, state and local government web resources and services.